Terminal Aerodrome Forecast
Issued by NWS Sioux Falls, SD

Home | Current Version | Previous Version | Graphics & Text | Print | Product List | Glossary On
Versions: 1 2 3 4 5 6 7 8 9 10 11 12 13 14 15 16
000
FTUS43 KFSD 222349
TAFHON
TAF
KHON 222349Z 2300/2324 18007KT P6SM BKN200
     FM230400 22006KT P6SM BKN100
     FM230900 30009KT P6SM BKN070
     FM231700 31020G30KT P6SM BKN040=

USA.gov is the U.S. government's official web portal to all federal, state and local government web resources and services.